Time;durP1;ratioP1;P1;durP2;ratioP2;P2;SDS_P1;SDS_P2;PMS_P1;PMS_P2;Temp;Humidity;BMP_temperature;BMP_pressure;BME280_temperature;BME280_humidity;BME280_pressure;Samples;Min_cycle;Max_cycle;Signal;HPM_P1;HPM_P2
2023/06/10 00:01:36;;;;;;;5.25;4.10;;;22.70;84.10;;;;;;5073460;28;20036;-81
2023/06/10 00:04:02;;;;;;;5.18;4.03;;;22.60;84.10;;;;;;5073030;28;20389;-82
2023/06/10 00:06:28;;;;;;;4.55;3.83;;;22.60;84.30;;;;;;5073729;28;20028;-81
2023/06/10 00:08:54;;;;;;;6.60;3.80;;;22.60;84.30;;;;;;5074542;28;20013;-82
2023/06/10 00:11:21;;;;;;;3.95;3.53;;;22.50;84.40;;;;;;5060183;28;20020;-82
2023/06/10 00:13:47;;;;;;;5.38;4.32;;;22.50;84.50;;;;;;5073279;28;20465;-82
2023/06/10 00:16:12;;;;;;;6.57;3.92;;;22.50;84.60;;;;;;5073422;28;20054;-82
2023/06/10 00:18:38;;;;;;;6.43;3.60;;;22.50;84.60;;;;;;5074396;28;20234;-82
2023/06/10 00:21:05;;;;;;;6.03;3.85;;;22.40;84.60;;;;;;5072941;28;20505;-82
2023/06/10 00:23:31;;;;;;;4.68;3.50;;;22.40;84.70;;;;;;5063071;28;20047;-82
2023/06/10 00:25:59;;;;;;;4.93;3.85;;;22.40;84.80;;;;;;5075887;28;20032;-82
2023/06/10 00:28:25;;;;;;;4.43;3.63;;;22.40;84.80;;;;;;5073277;28;20114;-81
2023/06/10 00:30:51;;;;;;;4.68;3.78;;;22.30;84.80;;;;;;5072081;28;20039;-82
2023/06/10 00:33:16;;;;;;;4.65;3.65;;;22.30;84.90;;;;;;5073739;28;20078;-82
2023/06/10 00:35:42;;;;;;;4.93;3.58;;;22.20;84.80;;;;;;5073038;28;20063;-82
2023/06/10 00:38:07;;;;;;;5.60;3.88;;;22.20;84.90;;;;;;5074116;28;20107;-82
2023/06/10 00:40:39;;;;;;;6.95;3.88;;;22.10;84.90;;;;;;5074113;28;20036;-82
2023/06/10 00:43:05;;;;;;;4.75;4.03;;;22.10;85.00;;;;;;5065940;28;20051;-82
2023/06/10 00:45:31;;;;;;;4.00;3.45;;;22.00;84.90;;;;;;5073043;28;20032;-82
2023/06/10 00:47:57;;;;;;;3.80;3.33;;;22.00;85.00;;;;;;5073444;28;20024;-82
2023/06/10 00:50:22;;;;;;;4.63;3.75;;;22.00;85.00;;;;;;5072479;28;20020;-82
2023/06/10 00:52:48;;;;;;;5.50;3.70;;;22.00;84.90;;;;;;5059195;28;20053;-81
2023/06/10 00:55:16;;;;;;;5.35;3.90;;;21.90;84.90;;;;;;5063202;28;20050;-81
2023/06/10 00:57:44;;;;;;;5.13;3.90;;;21.90;84.90;;;;;;5056690;28;20036;-82
2023/06/10 01:00:11;;;;;;;5.35;3.90;;;21.90;84.90;;;;;;5071670;28;20028;-81
2023/06/10 01:02:36;;;;;;;6.63;3.65;;;21.90;84.80;;;;;;5072333;28;20031;-82
2023/06/10 01:05:03;;;;;;;5.63;3.65;;;21.80;84.80;;;;;;5072136;28;20020;-82
2023/06/10 01:07:39;;;;;;;6.20;3.75;;;21.80;84.90;;;;;;5075151;28;20035;-81
2023/06/10 01:10:10;;;;;;;4.40;3.33;;;21.70;84.80;;;;;;5073877;28;20505;-82
2023/06/10 01:12:48;;;;;;;5.32;3.80;;;21.70;85.00;;;;;;5057604;28;20031;-82
2023/06/10 01:15:16;;;;;;;5.03;3.38;;;21.60;85.00;;;;;;5074202;28;20262;-82
2023/06/10 01:17:59;;;;;;;4.85;3.83;;;21.60;85.00;;;;;;5072302;28;20342;-82
2023/06/10 01:20:27;;;;;;;5.15;3.63;;;21.60;85.00;;;;;;5057144;28;20035;-81
2023/06/10 01:22:57;;;;;;;6.07;4.47;;;21.50;84.90;;;;;;5072415;28;20054;-82
2023/06/10 01:25:27;;;;;;;6.10;3.65;;;21.50;84.90;;;;;;5058113;28;20067;-81
2023/06/10 01:28:15;;;;;;;5.15;3.63;;;21.50;84.80;;;;;;5073071;28;20063;-80
2023/06/10 01:31:09;;;;;;;5.20;3.85;;;21.50;84.80;;;;;;5056429;28;20031;-81
2023/06/10 01:33:39;;;;;;;7.03;4.22;;;21.40;84.70;;;;;;5072909;28;20020;-81
2023/06/10 01:36:05;;;;;;;4.97;3.60;;;21.40;84.90;;;;;;5072079;28;20048;-81
2023/06/10 01:38:35;;;;;;;5.20;3.83;;;21.30;84.80;;;;;;5063408;28;20035;-81
2023/06/10 01:41:01;;;;;;;4.70;3.78;;;21.30;84.90;;;;;;5071857;28;20093;-81
2023/06/10 01:43:27;;;;;;;5.03;3.78;;;21.20;84.90;;;;;;5055960;28;20016;-81
2023/06/10 01:45:52;;;;;;;5.25;3.42;;;21.20;85.10;;;;;;5071824;28;20025;-82
2023/06/10 01:48:18;;;;;;;5.13;3.55;;;21.20;85.00;;;;;;5061887;28;20750;-81
2023/06/10 01:50:43;;;;;;;5.80;3.80;;;21.10;85.00;;;;;;5071596;28;20039;-81
2023/06/10 01:53:09;;;;;;;6.10;3.72;;;21.10;85.00;;;;;;5061324;28;20436;-81
2023/06/10 01:55:35;;;;;;;4.85;3.40;;;21.00;85.10;;;;;;5073318;28;20028;-81
2023/06/10 01:58:00;;;;;;;5.15;3.70;;;21.00;85.20;;;;;;5064184;28;20128;-80
2023/06/10 02:00:26;;;;;;;5.85;3.78;;;21.00;85.20;;;;;;5056363;28;20036;-81
2023/06/10 02:02:51;;;;;;;5.20;3.63;;;21.00;85.20;;;;;;5062441;28;20100;-81
2023/06/10 02:05:17;;;;;;;5.35;3.78;;;20.90;85.20;;;;;;5072066;28;20020;-80
2023/06/10 02:07:43;;;;;;;5.47;3.78;;;20.90;85.30;;;;;;5072574;28;20029;-82
2023/06/10 02:10:08;;;;;;;5.20;3.88;;;20.80;85.20;;;;;;5073933;28;20503;-81
2023/06/10 02:12:34;;;;;;;7.03;3.53;;;20.80;85.30;;;;;;5075747;28;20032;-81
2023/06/10 02:15:00;;;;;;;4.82;3.60;;;20.80;85.40;;;;;;5058773;28;20370;-81
2023/06/10 02:17:26;;;;;;;4.43;3.10;;;20.70;85.30;;;;;;5076275;28;20024;-81
2023/06/10 02:19:56;;;;;;;4.55;3.50;;;20.70;85.50;;;;;;5075772;28;20066;-81
2023/06/10 02:22:22;;;;;;;5.85;3.72;;;20.70;85.60;;;;;;5076860;28;20063;-81
2023/06/10 02:24:48;;;;;;;5.07;3.83;;;20.60;85.60;;;;;;5077256;28;20025;-81
2023/06/10 02:27:15;;;;;;;5.22;3.33;;;20.60;85.80;;;;;;5067646;28;20036;-81
2023/06/10 02:29:41;;;;;;;4.90;3.35;;;20.60;85.90;;;;;;5074373;28;20465;-81
2023/06/10 02:32:07;;;;;;;4.22;3.15;;;20.50;86.00;;;;;;5076182;28;20039;-82
2023/06/10 02:34:33;;;;;;;5.45;3.40;;;20.50;86.10;;;;;;5061658;28;20450;-81
2023/06/10 02:36:59;;;;;;;5.45;3.67;;;20.50;86.30;;;;;;5076358;28;20027;-81
2023/06/10 02:39:25;;;;;;;4.65;3.47;;;20.50;86.50;;;;;;5066266;28;20016;-81
2023/06/10 02:41:51;;;;;;;4.43;3.08;;;20.40;86.60;;;;;;5058111;28;20031;-81
2023/06/10 02:44:17;;;;;;;4.47;3.40;;;20.40;86.70;;;;;;5076160;28;20051;-82
2023/06/10 02:46:43;;;;;;;5.65;3.50;;;20.40;86.90;;;;;;5075142;28;20028;-81
2023/06/10 02:49:09;;;;;;;6.47;3.55;;;20.30;86.90;;;;;;5060947;28;20036;-81
2023/06/10 02:51:35;;;;;;;4.47;3.20;;;20.30;87.10;;;;;;5076525;28;20032;-81
2023/06/10 02:54:01;;;;;;;6.68;3.42;;;20.30;87.30;;;;;;5075502;28;20016;-81
2023/06/10 02:56:27;;;;;;;5.75;3.42;;;20.20;87.40;;;;;;5075223;28;20465;-81
2023/06/10 02:58:53;;;;;;;5.72;3.47;;;20.20;87.60;;;;;;5074348;28;20032;-81
2023/06/10 03:01:18;;;;;;;5.82;3.78;;;20.20;87.70;;;;;;5060114;28;20063;-81
2023/06/10 03:03:46;;;;;;;6.30;3.90;;;20.20;87.90;;;;;;5074626;28;20027;-81
2023/06/10 03:06:12;;;;;;;5.45;3.20;;;20.20;88.10;;;;;;5075985;28;20485;-81
2023/06/10 03:08:39;;;;;;;5.30;3.70;;;20.10;88.20;;;;;;5076717;28;20071;-81
2023/06/10 03:11:04;;;;;;;5.03;3.38;;;20.10;88.40;;;;;;5067203;28;20489;-81
2023/06/10 03:13:30;;;;;;;5.93;3.45;;;20.10;88.50;;;;;;5063958;28;20639;-81
2023/06/10 03:15:56;;;;;;;6.65;3.65;;;20.10;88.50;;;;;;5073633;28;20024;-81
2023/06/10 03:18:25;;;;;;;5.03;3.78;;;20.00;88.70;;;;;;5073598;28;20014;-81
2023/06/10 03:20:51;;;;;;;5.53;3.58;;;20.00;88.90;;;;;;5059427;28;20476;-81
2023/06/10 03:23:18;;;;;;;5.22;3.33;;;20.00;89.00;;;;;;5075733;28;20422;-82
2023/06/10 03:25:44;;;;;;;6.65;3.45;;;20.00;89.20;;;;;;5059178;28;20119;-81
2023/06/10 03:28:09;;;;;;;5.80;3.60;;;20.00;89.30;;;;;;5064531;28;20134;-81
2023/06/10 03:30:35;;;;;;;5.78;3.30;;;19.90;89.30;;;;;;5075476;28;20027;-81
2023/06/10 03:33:01;;;;;;;6.20;3.40;;;19.90;89.50;;;;;;5073876;28;20016;-81
2023/06/10 03:35:26;;;;;;;6.25;3.50;;;19.90;89.60;;;;;;5074563;28;20082;-81
2023/06/10 03:37:52;;;;;;;4.28;2.90;;;19.90;89.70;;;;;;5075991;28;20819;-81
2023/06/10 03:40:17;;;;;;;6.18;3.30;;;19.90;89.80;;;;;;5074420;28;20039;-81
2023/06/10 03:42:44;;;;;;;5.43;3.40;;;19.90;89.90;;;;;;5073848;28;20032;-80
2023/06/10 03:45:10;;;;;;;4.10;3.15;;;19.80;90.00;;;;;;5074804;28;20032;-81
2023/06/10 03:47:37;;;;;;;6.32;3.40;;;19.90;90.10;;;;;;5064097;28;20442;-81
2023/06/10 03:50:04;;;;;;;6.20;3.70;;;19.80;90.10;;;;;;5060134;28;20016;-81
2023/06/10 03:52:30;;;;;;;5.30;3.25;;;19.80;90.20;;;;;;5074908;28;20028;-81
2023/06/10 03:54:55;;;;;;;8.55;3.65;;;19.80;90.20;;;;;;5074275;28;20067;-81
2023/06/10 03:57:21;;;;;;;7.20;3.65;;;19.70;90.30;;;;;;5073942;28;20139;-81
2023/06/10 03:59:46;;;;;;;5.65;3.38;;;19.70;90.30;;;;;;5074103;28;20012;-80
2023/06/10 04:02:12;;;;;;;5.15;3.42;;;19.70;90.40;;;;;;5073964;28;20496;-81
2023/06/10 04:04:37;;;;;;;5.00;3.45;;;19.70;90.50;;;;;;5057995;28;20815;-81
2023/06/10 04:07:04;;;;;;;5.95;3.75;;;19.70;90.60;;;;;;5063679;28;20038;-81
2023/06/10 04:09:30;;;;;;;5.65;3.58;;;19.70;90.50;;;;;;5073414;28;20017;-81
2023/06/10 04:11:55;;;;;;;4.95;3.45;;;19.70;90.60;;;;;;5057967;28;20068;-81
2023/06/10 04:14:21;;;;;;;5.15;3.70;;;19.70;90.60;;;;;;5074362;28;20039;-81
2023/06/10 04:16:47;;;;;;;6.50;3.38;;;19.60;90.60;;;;;;5073638;28;20024;-81
2023/06/10 04:19:12;;;;;;;4.70;3.08;;;19.70;90.70;;;;;;5073272;28;20028;-80
2023/06/10 04:21:38;;;;;;;5.43;3.45;;;19.60;90.70;;;;;;5073770;28;20036;-81
2023/06/10 04:24:04;;;;;;;5.60;3.45;;;19.60;90.70;;;;;;5074417;28;20174;-81
2023/06/10 04:26:29;;;;;;;6.55;3.72;;;19.60;90.80;;;;;;5057443;28;20048;-80
2023/06/10 04:28:55;;;;;;;5.70;3.50;;;19.60;90.80;;;;;;5074593;28;20028;-81
2023/06/10 04:31:20;;;;;;;5.80;3.20;;;19.60;90.80;;;;;;5072405;28;20019;-81
2023/06/10 04:33:46;;;;;;;5.35;3.40;;;19.60;90.90;;;;;;5074238;28;20032;-81
2023/06/10 04:36:11;;;;;;;6.07;3.08;;;19.60;90.90;;;;;;5074038;28;20032;-81
2023/06/10 04:38:37;;;;;;;4.63;3.00;;;19.60;91.00;;;;;;5076214;28;20034;-81
2023/06/10 04:41:02;;;;;;;4.90;3.20;;;19.60;91.00;;;;;;5063134;28;20119;-81
2023/06/10 04:43:29;;;;;;;6.38;3.40;;;19.60;91.00;;;;;;5073088;28;20021;-81
2023/06/10 04:45:55;;;;;;;5.50;3.28;;;19.60;91.00;;;;;;5072086;28;20774;-81
2023/06/10 04:48:20;;;;;;;4.85;3.22;;;19.70;91.10;;;;;;5062736;28;20476;-81
2023/06/10 04:50:46;;;;;;;5.47;3.53;;;19.70;91.10;;;;;;5072662;28;20080;-81
2023/06/10 04:53:12;;;;;;;5.55;3.67;;;19.70;91.10;;;;;;5073782;28;20572;-81
2023/06/10 04:55:37;;;;;;;6.43;4.05;;;19.70;91.20;;;;;;5057887;28;21807;-80
2023/06/10 04:58:03;;;;;;;5.85;3.92;;;19.80;91.20;;;;;;5057210;28;20039;-81
2023/06/10 05:00:29;;;;;;;5.20;3.38;;;19.80;91.30;;;;;;5072834;28;20042;-81
2023/06/10 05:02:55;;;;;;;4.82;3.17;;;19.80;91.30;;;;;;5071665;28;20389;-81
2023/06/10 05:05:21;;;;;;;5.82;3.72;;;19.80;91.30;;;;;;5072964;28;20602;-81
2023/06/10 05:07:47;;;;;;;6.57;3.35;;;19.80;91.30;;;;;;5074664;28;20032;-81
2023/06/10 05:10:12;;;;;;;7.43;3.65;;;19.80;91.40;;;;;;5072600;28;20028;-81
2023/06/10 05:12:39;;;;;;;5.07;3.00;;;19.90;91.40;;;;;;5071880;28;20028;-81
2023/06/10 05:15:06;;;;;;;6.07;4.00;;;19.90;91.40;;;;;;5071796;28;20024;-81
2023/06/10 05:17:32;;;;;;;6.50;3.30;;;19.90;91.50;;;;;;5073369;28;20081;-80
2023/06/10 05:19:57;;;;;;;6.00;3.58;;;19.90;91.50;;;;;;5072760;28;20473;-81
2023/06/10 05:22:26;;;;;;;5.70;3.67;;;19.90;91.50;;;;;;5074932;28;20045;-81
2023/06/10 05:24:52;;;;;;;5.05;3.50;;;19.90;91.50;;;;;;5072381;28;20043;-82
2023/06/10 05:27:17;;;;;;;4.90;3.33;;;20.00;91.60;;;;;;5071690;28;20519;-82
2023/06/10 05:29:43;;;;;;;5.05;3.28;;;20.00;91.50;;;;;;5056585;28;20028;-82
2023/06/10 05:32:09;;;;;;;6.00;3.38;;;20.00;91.50;;;;;;5055281;28;20039;-81
2023/06/10 05:34:34;;;;;;;5.30;3.50;;;20.00;91.50;;;;;;5057012;28;20115;-81
2023/06/10 05:37:00;;;;;;;6.45;3.90;;;20.10;91.60;;;;;;5057093;28;20032;-81
2023/06/10 05:39:25;;;;;;;6.28;3.88;;;20.10;91.60;;;;;;5062538;28;20119;-79
2023/06/10 05:41:51;;;;;;;7.57;3.67;;;20.10;91.50;;;;;;5072248;28;20040;-79
2023/06/10 05:44:16;;;;;;;5.65;3.50;;;20.20;91.60;;;;;;5072434;28;20024;-80
2023/06/10 05:46:42;;;;;;;5.57;3.50;;;20.20;91.60;;;;;;5062206;28;20297;-82
2023/06/10 05:49:07;;;;;;;4.85;3.22;;;20.20;91.50;;;;;;5067668;28;20032;-81
2023/06/10 05:51:33;;;;;;;5.43;3.22;;;20.30;91.50;;;;;;5063963;28;20024;-81
2023/06/10 05:53:58;;;;;;;5.32;3.22;;;20.40;91.60;;;;;;5063308;28;20515;-82
2023/06/10 05:56:25;;;;;;;5.55;3.17;;;20.40;91.50;;;;;;5078623;28;20488;-79
2023/06/10 05:58:51;;;;;;;5.07;3.25;;;20.40;91.50;;;;;;5062534;28;20024;-80
2023/06/10 06:01:16;;;;;;;5.45;3.40;;;20.50;91.50;;;;;;5075344;28;20109;-78
2023/06/10 06:03:42;;;;;;;5.50;3.45;;;20.50;91.50;;;;;;5077773;28;20127;-80
2023/06/10 06:06:07;;;;;;;6.20;3.30;;;20.50;91.50;;;;;;5061947;28;20397;-80
2023/06/10 06:08:33;;;;;;;5.20;3.38;;;20.60;91.50;;;;;;5075740;28;20031;-79
2023/06/10 06:10:58;;;;;;;5.68;3.78;;;20.60;91.50;;;;;;5076116;28;20165;-80
2023/06/10 06:13:24;;;;;;;5.43;4.15;;;20.60;91.50;;;;;;5076139;28;20139;-80
2023/06/10 06:15:50;;;;;;;7.40;3.83;;;20.60;91.50;;;;;;5064034;28;20063;-79
2023/06/10 06:18:16;;;;;;;6.35;3.40;;;20.60;91.50;;;;;;5066370;28;20077;-80
2023/06/10 06:20:42;;;;;;;5.20;3.78;;;20.70;91.50;;;;;;5065522;28;20024;-79
2023/06/10 06:23:09;;;;;;;5.38;3.28;;;20.80;91.50;;;;;;5061031;28;20047;-83
2023/06/10 06:25:35;;;;;;;6.43;3.38;;;20.80;91.40;;;;;;5065382;28;20085;-82
2023/06/10 06:28:01;;;;;;;7.60;3.65;;;20.90;91.40;;;;;;5076676;28;20047;-83
2023/06/10 06:30:27;;;;;;;6.65;3.92;;;20.90;91.40;;;;;;5076840;28;20028;-80
2023/06/10 06:32:54;;;;;;;5.85;3.47;;;20.90;91.30;;;;;;5075407;28;20054;-79
2023/06/10 06:35:19;;;;;;;4.43;3.53;;;20.90;91.30;;;;;;5076832;28;20020;-80
2023/06/10 06:37:45;;;;;;;5.20;3.55;;;21.00;91.40;;;;;;5075455;28;20033;-79
2023/06/10 06:40:11;;;;;;;5.82;3.50;;;21.00;91.40;;;;;;5060909;28;20393;-79
2023/06/10 06:42:37;;;;;;;5.93;3.38;;;21.00;91.30;;;;;;5059327;28;20032;-78
2023/06/10 06:45:02;;;;;;;5.60;3.35;;;21.10;91.40;;;;;;5075828;28;20025;-80
2023/06/10 06:47:28;;;;;;;6.47;3.78;;;21.20;91.40;;;;;;5075094;28;20039;-79
2023/06/10 06:49:53;;;;;;;5.28;3.15;;;21.20;91.40;;;;;;5076589;28;20028;-81
2023/06/10 06:52:19;;;;;;;4.00;2.88;;;21.20;91.40;;;;;;5075673;28;20135;-80
2023/06/10 06:54:45;;;;;;;5.57;3.40;;;21.30;91.40;;;;;;5065426;28;20051;-80
2023/06/10 06:57:11;;;;;;;4.97;3.63;;;21.40;91.40;;;;;;5073733;28;20070;-80
2023/06/10 06:59:36;;;;;;;6.60;4.13;;;21.40;91.40;;;;;;5073341;28;20086;-81
2023/06/10 07:02:03;;;;;;;5.32;3.35;;;21.40;91.40;;;;;;5061727;28;20032;-81
2023/06/10 07:04:28;;;;;;;5.72;3.63;;;21.40;91.30;;;;;;5072307;28;20165;-80
2023/06/10 07:06:54;;;;;;;5.45;3.42;;;21.40;91.30;;;;;;5073033;28;20073;-80
2023/06/10 07:09:19;;;;;;;6.88;3.78;;;21.40;91.30;;;;;;5071520;28;20081;-79
2023/06/10 07:11:45;;;;;;;5.75;3.80;;;21.40;91.30;;;;;;5072485;28;20031;-79
2023/06/10 07:14:11;;;;;;;6.03;3.65;;;21.50;91.30;;;;;;5071608;28;20036;-80
2023/06/10 07:16:36;;;;;;;5.22;3.13;;;21.60;91.30;;;;;;5072931;28;20028;-81
2023/06/10 07:19:02;;;;;;;5.15;3.40;;;21.60;91.30;;;;;;5073995;28;20242;-81
2023/06/10 07:21:29;;;;;;;5.07;3.30;;;21.60;91.20;;;;;;5074129;28;20551;-82
2023/06/10 07:23:55;;;;;;;4.32;2.70;;;21.70;91.20;;;;;;5071884;28;20131;-83
2023/06/10 07:26:22;;;;;;;5.97;3.63;;;21.80;91.20;;;;;;5072492;28;20036;-82
2023/06/10 07:28:48;;;;;;;4.25;2.78;;;21.80;91.10;;;;;;5071327;28;20028;-80
2023/06/10 07:31:14;;;;;;;4.13;3.15;;;21.90;91.20;;;;;;5064731;28;20027;-81
2023/06/10 07:33:39;;;;;;;4.25;3.08;;;22.00;91.10;;;;;;5063804;28;20039;-81
2023/06/10 07:36:06;;;;;;;4.55;3.00;;;22.00;91.10;;;;;;5075595;28;20520;-83
2023/06/10 07:38:32;;;;;;;3.67;2.65;;;22.10;91.10;;;;;;5074126;28;20028;-84
2023/06/10 07:40:57;;;;;;;4.88;3.10;;;22.20;91.00;;;;;;5074194;28;20061;-81
2023/06/10 07:43:24;;;;;;;4.80;3.45;;;22.30;91.00;;;;;;5074338;28;20032;-82
2023/06/10 07:45:49;;;;;;;4.50;3.40;;;22.40;90.90;;;;;;5073949;28;20051;-82
2023/06/10 07:48:15;;;;;;;5.15;3.40;;;22.40;90.80;;;;;;5074955;28;20032;-82
2023/06/10 07:50:41;;;;;;;4.50;2.95;;;22.50;90.90;;;;;;5064911;28;20126;-82
2023/06/10 07:53:06;;;;;;;3.95;2.80;;;22.50;90.80;;;;;;5071341;28;20461;-81
2023/06/10 07:55:32;;;;;;;5.63;3.15;;;22.60;91.10;;;;;;5072165;28;20513;-82
2023/06/10 07:57:57;;;;;;;4.15;2.95;;;22.60;90.70;;;;;;5071932;28;20032;-81
2023/06/10 08:00:23;;;;;;;4.32;3.00;;;22.70;90.60;;;;;;5070840;28;20606;-81
2023/06/10 08:02:50;;;;;;;5.00;2.83;;;22.70;90.60;;;;;;5072580;28;20031;-83
2023/06/10 08:05:15;;;;;;;4.15;2.90;;;22.80;90.60;;;;;;5074321;28;20039;-82
2023/06/10 08:07:41;;;;;;;4.55;3.08;;;22.90;90.50;;;;;;5072316;28;20028;-82
2023/06/10 08:10:07;;;;;;;4.13;2.75;;;22.90;90.50;;;;;;5072173;28;20104;-83
2023/06/10 08:12:34;;;;;;;4.65;3.10;;;23.00;90.50;;;;;;5071360;28;20023;-83
2023/06/10 08:15:00;;;;;;;5.43;3.00;;;23.00;90.40;;;;;;5060477;28;20365;-82
2023/06/10 08:17:25;;;;;;;4.75;3.35;;;23.00;90.30;;;;;;5074098;28;20013;-83
2023/06/10 08:19:51;;;;;;;4.32;2.80;;;23.10;90.40;;;;;;5073724;28;20062;-83
2023/06/10 08:22:17;;;;;;;4.85;3.17;;;23.20;90.20;;;;;;5073025;28;20070;-84
2023/06/10 08:24:43;;;;;;;4.85;3.00;;;23.30;90.20;;;;;;5071172;28;20016;-84
2023/06/10 08:27:08;;;;;;;5.55;3.33;;;23.40;90.20;;;;;;5052291;28;20044;-82
2023/06/10 08:29:34;;;;;;;4.70;3.03;;;23.50;90.10;;;;;;5070611;28;20024;-83
2023/06/10 08:32:00;;;;;;;6.25;3.50;;;23.60;90.10;;;;;;5072866;28;20119;-82
2023/06/10 08:34:25;;;;;;;4.82;3.10;;;23.60;90.00;;;;;;5072243;28;20502;-83
2023/06/10 08:36:53;;;;;;;6.53;3.80;;;23.70;90.10;;;;;;5070960;28;20046;-82
2023/06/10 08:39:19;;;;;;;5.80;3.13;;;23.80;89.70;;;;;;5054103;28;20503;-81
2023/06/10 08:41:56;;;;;;;6.28;3.42;;;23.80;89.60;;;;;;5070732;28;20651;-82
2023/06/10 08:44:28;;;;;;;4.55;3.13;;;24.00;89.60;;;;;;5072185;28;20027;-82
2023/06/10 08:46:59;;;;;;;4.32;3.13;;;24.00;89.50;;;;;;5071677;28;20474;-80
2023/06/10 08:49:26;;;;;;;7.13;3.40;;;24.10;89.50;;;;;;5069463;28;20029;-83
2023/06/10 08:51:58;;;;;;;4.28;2.90;;;24.20;89.30;;;;;;5068907;28;20055;-83
2023/06/10 08:54:37;;;;;;;4.45;2.97;;;24.30;89.40;;;;;;5069901;28;20105;-81
2023/06/10 08:57:08;;;;;;;5.60;3.25;;;24.40;89.50;;;;;;5070971;28;20028;-84
2023/06/10 08:59:33;;;;;;;5.20;3.00;;;24.60;89.20;;;;;;5071760;28;20091;-84
2023/06/10 09:02:01;;;;;;;3.42;2.58;;;24.60;89.00;;;;;;5059627;28;20036;-81
2023/06/10 09:04:27;;;;;;;4.30;2.83;;;24.80;89.00;;;;;;5069763;28;20378;-82
2023/06/10 09:06:53;;;;;;;4.65;3.33;;;24.90;88.70;;;;;;5070122;28;20028;-82
2023/06/10 09:09:20;;;;;;;3.88;2.75;;;25.00;88.20;;;;;;5070468;28;20446;-82
2023/06/10 09:11:46;;;;;;;5.00;3.13;;;25.10;88.10;;;;;;5070546;28;20039;-81
2023/06/10 09:14:16;;;;;;;4.97;3.20;;;25.20;87.80;;;;;;5071820;28;20027;-82
2023/06/10 09:16:42;;;;;;;4.57;2.70;;;25.30;87.60;;;;;;5070382;28;20118;-83
2023/06/10 09:19:08;;;;;;;4.90;2.70;;;25.50;87.70;;;;;;5058502;28;20024;-83
2023/06/10 09:21:35;;;;;;;6.50;3.13;;;25.60;88.10;;;;;;5069594;28;20160;-82
2023/06/10 09:24:01;;;;;;;3.95;2.83;;;25.80;87.40;;;;;;5053625;28;20044;-83
2023/06/10 09:26:30;;;;;;;4.93;2.90;;;25.90;87.00;;;;;;5070623;28;20617;-81
2023/06/10 09:29:09;;;;;;;5.40;2.75;;;26.00;86.60;;;;;;5069818;28;20024;-83
2023/06/10 09:31:36;;;;;;;4.07;3.10;;;26.20;87.00;;;;;;5069390;28;20497;-82
2023/06/10 09:34:12;;;;;;;4.97;2.90;;;26.90;87.20;;;;;;5058421;28;20865;-82
2023/06/10 09:36:39;;;;;;;3.75;2.72;;;28.10;85.70;;;;;;5055411;28;20366;-82
2023/06/10 09:39:05;;;;;;;4.20;2.50;;;29.10;84.50;;;;;;5055564;28;20032;-83
2023/06/10 09:41:40;;;;;;;6.03;3.15;;;30.00;83.30;;;;;;5069402;28;20033;-82
2023/06/10 09:44:16;;;;;;;4.00;2.72;;;30.70;81.80;;;;;;5071245;28;20036;-84
2023/06/10 09:46:45;;;;;;;3.67;2.53;;;31.40;81.30;;;;;;5070677;28;20133;-85
2023/06/10 09:49:10;;;;;;;2.97;2.20;;;32.00;80.40;;;;;;5069460;28;20178;-81
2023/06/10 09:51:36;;;;;;;4.53;2.83;;;32.30;79.90;;;;;;5053201;28;20024;-83
2023/06/10 09:54:03;;;;;;;3.53;2.65;;;32.50;79.10;;;;;;5069624;28;20063;-83
2023/06/10 09:56:35;;;;;;;3.78;2.47;;;32.90;78.50;;;;;;5059548;28;20044;-83
2023/06/10 09:59:02;;;;;;;2.63;2.15;;;33.30;77.90;;;;;;5071868;28;20497;-79
2023/06/10 10:01:28;;;;;;;3.28;2.30;;;33.60;77.20;;;;;;5069289;28;20059;-79
2023/06/10 10:03:54;;;;;;;4.18;2.40;;;34.00;76.80;;;;;;5069736;28;20036;-81
2023/06/10 10:06:20;;;;;;;4.82;2.67;;;34.30;76.20;;;;;;5059619;28;20030;-79
2023/06/10 10:08:49;;;;;;;5.30;2.63;;;34.50;74.50;;;;;;5070600;28;20028;-82
2023/06/10 10:11:17;;;;;;;5.15;2.67;;;34.60;73.60;;;;;;5055007;28;20024;-82
2023/06/10 10:13:47;;;;;;;4.18;3.13;;;34.70;73.70;;;;;;5056783;28;20510;-82
2023/06/10 10:16:17;;;;;;;4.03;2.40;;;34.70;73.40;;;;;;5070990;28;20100;-81
2023/06/10 10:18:51;;;;;;;4.18;2.97;;;34.90;73.50;;;;;;5070569;28;20089;-81
2023/06/10 10:21:23;;;;;;;5.28;2.70;;;35.00;72.70;;;;;;5059338;28;20134;-81
2023/06/10 10:23:53;;;;;;;;;;;35.00;73.10;;;;;;5068079;28;20175;-81
2023/06/10 10:26:20;;;;;;;5.03;2.30;;;35.00;73.10;;;;;;5069500;28;20557;-82
2023/06/10 10:28:53;;;;;;;3.80;2.53;;;35.40;73.00;;;;;;5070199;28;20023;-80
2023/06/10 10:31:20;;;;;;;3.83;2.25;;;35.70;72.20;;;;;;5068831;28;20052;-81
2023/06/10 10:34:00;;;;;;;4.03;2.38;;;35.70;71.80;;;;;;5061095;28;20031;-82
2023/06/10 10:36:27;;;;;;;6.55;2.63;;;35.80;71.20;;;;;;5073304;28;20457;-80
2023/06/10 10:38:53;;;;;;;3.40;2.33;;;35.80;70.70;;;;;;5075268;28;20028;-81
2023/06/10 10:41:20;;;;;;;3.80;2.85;;;35.90;70.60;;;;;;5072937;28;20044;-82
2023/06/10 10:43:47;;;;;;;3.88;2.35;;;36.10;70.40;;;;;;5072827;28;20065;-82
2023/06/10 10:46:17;;;;;;;3.15;2.33;;;36.20;70.90;;;;;;5061307;28;20490;-82
2023/06/10 10:48:44;;;;;;;4.35;2.40;;;36.50;69.60;;;;;;5072841;28;20030;-85
2023/06/10 10:51:10;;;;;;;4.05;2.75;;;36.60;68.80;;;;;;5071716;28;20012;-83
2023/06/10 10:53:40;;;;;;;4.18;2.72;;;36.60;68.30;;;;;;5074408;28;20040;-84
2023/06/10 10:56:15;;;;;;;3.00;2.17;;;36.80;67.80;;;;;;5056595;28;20789;-80
2023/06/10 10:58:41;;;;;;;3.20;2.20;;;37.00;67.40;;;;;;5054048;28;20032;-82
2023/06/10 11:01:14;;;;;;;3.47;2.40;;;37.20;67.00;;;;;;5074080;28;20062;-83
2023/06/10 11:03:47;;;;;;;4.03;2.47;;;37.40;66.60;;;;;;5061394;28;20257;-84
2023/06/10 11:06:17;;;;;;;3.55;2.60;;;37.50;66.20;;;;;;5062742;28;20039;-84
2023/06/10 11:08:43;;;;;;;3.75;2.20;;;37.50;66.10;;;;;;5063497;28;20028;-83
2023/06/10 11:11:25;;;;;;;3.45;2.50;;;37.60;65.80;;;;;;5058461;28;20024;-83
2023/06/10 11:14:06;;;;;;;3.00;2.45;;;37.70;64.40;;;;;;5073668;28;20033;-83
2023/06/10 11:16:39;;;;;;;2.83;2.38;;;37.60;64.30;;;;;;5071904;28;20057;-83
2023/06/10 11:19:05;;;;;;;3.42;2.33;;;37.50;64.30;;;;;;5073260;28;20349;-83
2023/06/10 11:21:30;;;;;;;3.78;2.80;;;37.70;63.60;;;;;;5069606;28;20035;-81
2023/06/10 11:23:58;;;;;;;3.95;2.55;;;37.70;63.60;;;;;;5071450;28;20048;-82
2023/06/10 11:26:31;;;;;;;4.50;2.70;;;37.90;63.10;;;;;;5055871;28;20039;-82
2023/06/10 11:28:56;;;;;;;4.75;2.30;;;37.90;62.70;;;;;;5071201;28;20028;-82
2023/06/10 11:31:26;;;;;;;4.90;2.65;;;37.80;62.30;;;;;;5057022;28;20028;-83
2023/06/10 11:33:53;;;;;;;3.88;2.60;;;38.00;62.60;;;;;;5057322;28;20028;-83
2023/06/10 11:36:18;;;;;;;5.68;2.50;;;38.20;62.20;;;;;;5072938;28;20081;-82
2023/06/10 11:38:44;;;;;;;5.20;2.42;;;38.50;61.90;;;;;;5071082;28;20082;-82
2023/06/10 11:41:11;;;;;;;3.30;2.40;;;38.60;61.40;;;;;;5060327;28;20074;-82
2023/06/10 11:43:44;;;;;;;4.05;2.38;;;38.60;60.70;;;;;;5070955;28;20538;-82
2023/06/10 11:46:10;;;;;;;4.90;2.88;;;38.60;60.60;;;;;;5073018;28;20113;-81
2023/06/10 11:48:36;;;;;;;3.63;2.75;;;38.70;60.40;;;;;;5062125;28;20031;-83
2023/06/10 11:51:07;;;;;;;4.72;2.90;;;38.60;59.60;;;;;;5071676;28;20039;-82
2023/06/10 11:53:33;;;;;;;3.23;2.33;;;38.50;59.40;;;;;;5073300;28;20548;-81
2023/06/10 11:55:58;;;;;;;3.00;2.60;;;38.60;59.80;;;;;;5073339;28;20111;-80
2023/06/10 11:58:25;;;;;;;3.13;2.00;;;38.90;59.90;;;;;;5073095;28;20037;-82
2023/06/10 12:00:57;;;;;;;4.63;2.45;;;39.10;59.50;;;;;;5072431;28;20102;-82
2023/06/10 12:03:24;;;;;;;3.33;2.38;;;39.20;59.10;;;;;;5072567;28;20020;-81
2023/06/10 12:06:04;;;;;;;3.45;2.63;;;39.20;58.90;;;;;;5071538;28;20151;-82
2023/06/10 12:08:30;;;;;;;3.47;2.38;;;39.20;58.80;;;;;;5057310;28;21962;-80
2023/06/10 12:10:57;;;;;;;3.17;2.28;;;39.10;58.90;;;;;;5070563;28;20146;-82
2023/06/10 12:13:25;;;;;;;3.30;2.70;;;39.20;58.50;;;;;;5072358;28;20028;-81
2023/06/10 12:15:51;;;;;;;3.15;2.50;;;39.30;58.30;;;;;;5055395;28;20040;-81
2023/06/10 12:18:21;;;;;;;2.53;2.10;;;39.30;58.50;;;;;;5072908;28;20082;-82
2023/06/10 12:20:48;;;;;;;6.00;2.60;;;39.50;58.20;;;;;;5054340;28;20028;-81
2023/06/10 12:23:14;;;;;;;2.88;2.42;;;39.60;58.10;;;;;;5070989;28;20040;-80
2023/06/10 12:25:50;;;;;;;3.10;2.30;;;39.70;57.40;;;;;;5054815;28;20151;-80
2023/06/10 12:28:17;;;;;;;2.83;2.25;;;39.80;57.40;;;;;;5073340;28;20028;-82
2023/06/10 12:30:43;;;;;;;3.25;2.47;;;39.80;57.40;;;;;;5055600;28;20024;-81
2023/06/10 12:33:20;;;;;;;4.20;2.50;;;39.90;57.20;;;;;;5073585;28;20032;-80
2023/06/10 12:35:50;;;;;;;3.00;2.50;;;39.90;57.00;;;;;;5071655;28;20498;-81
2023/06/10 12:38:26;;;;;;;2.75;2.45;;;39.90;56.80;;;;;;5074155;28;20611;-81
2023/06/10 12:40:53;;;;;;;4.28;2.28;;;40.00;56.90;;;;;;5074614;28;20127;-80
2023/06/10 12:43:22;;;;;;;3.20;2.50;;;40.10;56.80;;;;;;5073877;28;20503;-80
2023/06/10 12:45:49;;;;;;;3.88;2.70;;;40.20;56.50;;;;;;5074254;28;20024;-81
2023/06/10 12:48:22;;;;;;;3.22;2.22;;;40.30;56.70;;;;;;5063700;28;20037;-80